Time;durP1;ratioP1;P1;durP2;ratioP2;P2;SDS_P1;SDS_P2;PMS_P1;PMS_P2;Temp;Humidity;BMP_temperature;BMP_pressure;BME280_temperature;BME280_humidity;BME280_pressure;Samples;Min_cycle;Max_cycle;Signal;HPM_P1;HPM_P2
2021/08/04 00:01:03;;;;;;;4.07;2.80;;;;;;;;;;5102641;28;20515;-60
2021/08/04 00:03:30;;;;;;;4.20;3.03;;;;;;;;;;5104543;28;20438;-60
2021/08/04 00:05:58;;;;;;;3.17;2.87;;;;;;;;;;5094750;28;20493;-60
2021/08/04 00:08:25;;;;;;;3.40;2.70;;;;;;;;;;5094582;28;20458;-60
2021/08/04 00:10:52;;;;;;;6.20;3.17;;;;;;;;;;5094570;28;20454;-60
2021/08/04 00:13:19;;;;;;;5.83;2.73;;;;;;;;;;5094229;28;20499;-60
2021/08/04 00:15:48;;;;;;;3.23;2.93;;;;;;;;;;5094101;28;20438;-60
2021/08/04 00:18:15;;;;;;;3.60;2.70;;;;;;;;;;5094001;28;20901;-60
2021/08/04 00:20:43;;;;;;;3.20;2.80;;;;;;;;;;5094062;28;20930;-59
2021/08/04 00:23:10;;;;;;;4.63;3.23;;;;;;;;;;5094329;28;20496;-59
2021/08/04 00:25:37;;;;;;;3.50;3.20;;;;;;;;;;5094138;28;20569;-59
2021/08/04 00:28:05;;;;;;;2.93;2.67;;;;;;;;;;5094048;28;20507;-60
2021/08/04 00:30:32;;;;;;;4.10;2.70;;;;;;;;;;5093986;28;20503;-59
2021/08/04 00:33:01;;;;;;;4.60;3.00;;;;;;;;;;5094229;28;20491;-59
2021/08/04 00:35:28;;;;;;;3.40;2.83;;;;;;;;;;5095130;28;20450;-61
2021/08/04 00:37:55;;;;;;;3.67;3.37;;;;;;;;;;5094797;28;20853;-60
2021/08/04 00:40:23;;;;;;;3.70;3.40;;;;;;;;;;5094540;28;20447;-61
2021/08/04 00:42:50;;;;;;;6.00;2.83;;;;;;;;;;5094867;28;20446;-60
2021/08/04 00:45:17;;;;;;;3.33;2.83;;;;;;;;;;5094454;28;20837;-60
2021/08/04 00:47:45;;;;;;;2.97;2.70;;;;;;;;;;5094052;28;20543;-61
2021/08/04 00:50:13;;;;;;;3.20;2.90;;;;;;;;;;5093693;28;20857;-60
2021/08/04 00:52:41;;;;;;;4.00;2.90;;;;;;;;;;5093519;28;20507;-60
2021/08/04 00:55:08;;;;;;;3.77;2.70;;;;;;;;;;5093777;28;20794;-60
2021/08/04 00:57:36;;;;;;;3.87;3.57;;;;;;;;;;5093646;28;20466;-59
2021/08/04 01:00:04;;;;;;;3.73;3.43;;;;;;;;;;5093595;28;20930;-60
2021/08/04 01:02:33;;;;;;;3.10;2.90;;;;;;;;;;5094170;28;20508;-60
2021/08/04 01:05:04;;;;;;;4.87;3.30;;;;;;;;;;5093560;28;20557;-60
2021/08/04 01:07:35;;;;;;;3.70;3.40;;;;;;;;;;5093587;28;20515;-60
2021/08/04 01:10:03;;;;;;;3.13;2.80;;;;;;;;;;5093275;28;20923;-60
2021/08/04 01:12:35;;;;;;;3.47;3.10;;;;;;;;;;5093537;28;20518;-60
2021/08/04 01:15:05;;;;;;;3.20;2.87;;;;;;;;;;5093303;28;20472;-60
2021/08/04 01:17:33;;;;;;;3.37;3.10;;;;;;;;;;5093214;28;20477;-59
2021/08/04 01:20:03;;;;;;;4.87;3.30;;;;;;;;;;5093438;28;20486;-60
2021/08/04 01:22:36;;;;;;;3.70;2.90;;;;;;;;;;5093464;28;20442;-60
2021/08/04 01:25:06;;;;;;;3.93;3.07;;;;;;;;;;5093457;28;20458;-60
2021/08/04 01:27:35;;;;;;;3.77;3.47;;;;;;;;;;5092972;28;21043;-61
2021/08/04 01:30:02;;;;;;;3.20;3.00;;;;;;;;;;5093374;28;20515;-60
2021/08/04 01:32:30;;;;;;;3.97;3.50;;;;;;;;;;5093085;28;20442;-60
2021/08/04 01:34:58;;;;;;;3.57;3.27;;;;;;;;;;5094216;28;20941;-60
2021/08/04 01:37:26;;;;;;;3.27;2.93;;;;;;;;;;5093256;28;20462;-60
2021/08/04 01:39:54;;;;;;;3.47;3.17;;;;;;;;;;5093371;28;20521;-60
2021/08/04 01:42:22;;;;;;;4.03;3.17;;;;;;;;;;5093093;28;20500;-60
2021/08/04 01:44:51;;;;;;;4.43;3.00;;;;;;;;;;5093282;28;20496;-60
2021/08/04 01:47:18;;;;;;;3.50;3.20;;;;;;;;;;5093150;28;20527;-61
2021/08/04 01:49:47;;;;;;;3.30;3.00;;;;;;;;;;5093015;28;20454;-60
2021/08/04 01:52:14;;;;;;;3.20;2.90;;;;;;;;;;5093244;28;20537;-60
2021/08/04 01:54:42;;;;;;;2.67;2.47;;;;;;;;;;5093700;28;20515;-60
2021/08/04 01:57:10;;;;;;;3.23;3.00;;;;;;;;;;5093477;28;20446;-61
2021/08/04 01:59:37;;;;;;;3.60;3.40;;;;;;;;;;5092768;28;20472;-60
2021/08/04 02:02:19;;;;;;;3.53;3.07;;;;;;;;;;5092822;28;20446;-60
2021/08/04 02:04:47;;;;;;;3.20;2.90;;;;;;;;;;5096767;28;20458;-60
2021/08/04 02:07:18;;;;;;;3.57;3.27;;;;;;;;;;5096882;28;20478;-60
2021/08/04 02:09:49;;;;;;;3.77;3.47;;;;;;;;;;5096709;28;20480;-60
2021/08/04 02:12:16;;;;;;;3.40;3.10;;;;;;;;;;5097047;28;20840;-60
2021/08/04 02:14:46;;;;;;;3.07;2.77;;;;;;;;;;5097095;28;20465;-60
2021/08/04 02:17:18;;;;;;;3.37;3.07;;;;;;;;;;5096801;28;20515;-60
2021/08/04 02:19:52;;;;;;;3.40;3.10;;;;;;;;;;5096543;28;20487;-60
2021/08/04 02:22:23;;;;;;;4.77;3.70;;;;;;;;;;5096775;28;20476;-60
2021/08/04 02:24:55;;;;;;;3.20;2.90;;;;;;;;;;5097615;28;20450;-60
2021/08/04 02:27:22;;;;;;;2.90;2.70;;;;;;;;;;5103766;28;20553;-60
2021/08/04 02:29:50;;;;;;;3.10;2.60;;;;;;;;;;5104014;28;20476;-60
2021/08/04 02:32:17;;;;;;;4.07;2.67;;;;;;;;;;5098719;28;20815;-61
2021/08/04 02:34:46;;;;;;;4.17;3.40;;;;;;;;;;5096641;28;20454;-60
2021/08/04 02:37:13;;;;;;;3.63;3.33;;;;;;;;;;5097115;28;20553;-60
2021/08/04 02:39:41;;;;;;;3.90;3.10;;;;;;;;;;5096502;28;20491;-61
2021/08/04 02:42:08;;;;;;;3.67;3.37;;;;;;;;;;5096728;28;20438;-60
2021/08/04 02:44:35;;;;;;;3.93;3.63;;;;;;;;;;5096453;28;21003;-60
2021/08/04 02:47:03;;;;;;;4.33;3.80;;;;;;;;;;5096580;28;20473;-61
2021/08/04 02:49:30;;;;;;;4.37;3.97;;;;;;;;;;5096752;28;20442;-60
2021/08/04 02:51:59;;;;;;;4.60;4.07;;;;;;;;;;5096267;28;20977;-60
2021/08/04 02:54:26;;;;;;;4.03;3.73;;;;;;;;;;5096282;28;20442;-61
2021/08/04 02:56:53;;;;;;;6.50;4.20;;;;;;;;;;5096432;28;20438;-61
2021/08/04 02:59:20;;;;;;;5.73;4.33;;;;;;;;;;5096047;28;20847;-60
2021/08/04 03:01:47;;;;;;;4.60;4.13;;;;;;;;;;5095826;28;20450;-60
2021/08/04 03:04:15;;;;;;;4.67;4.27;;;;;;;;;;5095902;28;20446;-60
2021/08/04 03:06:42;;;;;;;5.93;4.10;;;;;;;;;;5095910;28;20478;-60
2021/08/04 03:09:11;;;;;;;4.00;3.60;;;;;;;;;;5095439;28;20527;-60
2021/08/04 03:11:39;;;;;;;6.03;4.03;;;;;;;;;;5095449;28;20941;-60
2021/08/04 03:14:06;;;;;;;4.73;4.33;;;;;;;;;;5095277;28;20447;-60
2021/08/04 03:16:33;;;;;;;4.90;4.20;;;;;;;;;;5095645;28;20434;-60
2021/08/04 03:19:01;;;;;;;4.00;3.70;;;;;;;;;;5105743;22;20549;-55
2021/08/04 03:21:28;;;;;;;4.60;4.20;;;;;;;;;;5075057;28;20496;-54
2021/08/04 03:23:55;;;;;;;4.70;4.17;;;;;;;;;;5075205;28;20435;-54
2021/08/04 03:26:24;;;;;;;4.83;4.23;;;;;;;;;;5074841;28;20475;-55
2021/08/04 03:28:51;;;;;;;6.40;4.37;;;;;;;;;;5075059;28;20463;-56
2021/08/04 03:31:18;;;;;;;4.80;4.00;;;;;;;;;;5075280;28;20443;-54
2021/08/04 03:33:45;;;;;;;6.23;4.10;;;;;;;;;;5074767;28;20954;-55
2021/08/04 03:36:13;;;;;;;6.30;4.20;;;;;;;;;;5074990;28;20439;-54
2021/08/04 03:38:40;;;;;;;5.27;4.60;;;;;;;;;;5074969;28;20475;-54
2021/08/04 03:41:08;;;;;;;4.50;4.03;;;;;;;;;;5074493;28;20935;-54
2021/08/04 03:43:37;;;;;;;5.00;3.90;;;;;;;;;;5074531;28;20447;-55
2021/08/04 03:46:04;;;;;;;4.67;4.27;;;;;;;;;;5074712;28;20557;-54
2021/08/04 03:48:31;;;;;;;5.20;4.03;;;;;;;;;;5074312;28;20474;-54
2021/08/04 03:50:58;;;;;;;4.53;4.13;;;;;;;;;;5074279;28;20505;-54
2021/08/04 03:53:26;;;;;;;6.20;4.47;;;;;;;;;;5074620;28;20448;-54
2021/08/04 03:55:53;;;;;;;3.83;3.53;;;;;;;;;;5074265;28;20996;-54
2021/08/04 03:58:20;;;;;;;7.30;4.80;;;;;;;;;;5074194;28;20451;-54
2021/08/04 04:00:49;;;;;;;4.53;4.13;;;;;;;;;;5074458;28;20447;-54
2021/08/04 04:03:16;;;;;;;4.20;3.90;;;;;;;;;;5074455;28;20493;-55
2021/08/04 04:08:24;;;;;;;5.20;4.67;;;;;;;;;;5091284;27;20553;-55
2021/08/04 04:10:52;;;;;;;5.00;4.50;;;;;;;;;;5090479;28;20455;-55
2021/08/04 04:13:19;;;;;;;4.40;4.00;;;;;;;;;;5090572;28;20442;-53
2021/08/04 04:15:46;;;;;;;4.43;3.90;;;;;;;;;;5090600;28;20453;-55
2021/08/04 04:18:13;;;;;;;5.00;4.00;;;;;;;;;;5090316;28;20966;-55
2021/08/04 04:20:40;;;;;;;5.00;3.83;;;;;;;;;;5090533;28;20451;-55
2021/08/04 04:23:08;;;;;;;4.53;4.13;;;;;;;;;;5090792;28;20446;-55
2021/08/04 04:25:36;;;;;;;5.23;4.73;;;;;;;;;;5090426;28;20860;-55
2021/08/04 04:28:04;;;;;;;4.67;4.27;;;;;;;;;;5090621;28;20551;-55
2021/08/04 04:30:32;;;;;;;5.97;5.37;;;;;;;;;;5090417;28;20491;-55
2021/08/04 04:32:59;;;;;;;4.53;4.00;;;;;;;;;;5090685;28;20838;-55
2021/08/04 04:35:26;;;;;;;4.83;4.43;;;;;;;;;;5090433;28;20519;-55
2021/08/04 04:37:53;;;;;;;5.30;4.70;;;;;;;;;;5090460;28;20822;-55
2021/08/04 04:40:21;;;;;;;4.83;4.17;;;;;;;;;;5090696;28;20834;-54
2021/08/04 04:42:49;;;;;;;7.87;4.80;;;;;;;;;;5090113;28;20449;-55
2021/08/04 04:45:17;;;;;;;5.10;4.43;;;;;;;;;;5090498;28;20537;-54
2021/08/04 04:47:44;;;;;;;7.83;4.07;;;;;;;;;;5090747;28;20494;-55
2021/08/04 04:50:11;;;;;;;6.40;4.37;;;;;;;;;;5090569;28;20931;-55
2021/08/04 04:52:42;;;;;;;4.60;4.10;;;;;;;;;;5090146;28;20579;-55
2021/08/04 04:55:13;;;;;;;6.27;3.80;;;;;;;;;;5089801;28;21003;-55
2021/08/04 04:57:40;;;;;;;4.43;4.00;;;;;;;;;;5090215;28;20454;-55
2021/08/04 05:00:10;;;;;;;4.00;3.63;;;;;;;;;;5090080;28;20503;-55
2021/08/04 05:02:38;;;;;;;4.33;3.77;;;;;;;;;;5089857;28;20525;-55
2021/08/04 05:05:05;;;;;;;4.50;4.10;;;;;;;;;;5089622;28;20955;-55
2021/08/04 05:07:32;;;;;;;4.97;4.57;;;;;;;;;;5089370;28;20551;-55
2021/08/04 05:10:00;;;;;;;4.50;4.10;;;;;;;;;;5089714;28;20575;-54
2021/08/04 05:12:27;;;;;;;4.80;3.63;;;;;;;;;;5089362;28;20442;-54
2021/08/04 05:14:54;;;;;;;4.57;4.13;;;;;;;;;;5089506;28;20507;-54
2021/08/04 05:17:23;;;;;;;4.43;4.03;;;;;;;;;;5089171;28;20492;-53
2021/08/04 05:19:51;;;;;;;6.53;4.23;;;;;;;;;;5075553;28;20451;-54
2021/08/04 05:22:18;;;;;;;5.37;4.83;;;;;;;;;;5076044;28;20497;-54
2021/08/04 05:24:45;;;;;;;5.37;4.87;;;;;;;;;;5075748;28;20443;-52
2021/08/04 05:27:13;;;;;;;5.37;4.97;;;;;;;;;;5075465;28;20536;-55
2021/08/04 05:29:40;;;;;;;5.97;4.60;;;;;;;;;;5075573;28;20481;-54
2021/08/04 05:32:08;;;;;;;5.23;4.80;;;;;;;;;;5075487;28;20443;-55
2021/08/04 05:34:36;;;;;;;5.00;4.40;;;;;;;;;;5075830;28;20447;-55
2021/08/04 05:37:03;;;;;;;5.90;5.27;;;;;;;;;;5075300;28;20493;-54
2021/08/04 05:39:31;;;;;;;6.60;4.50;;;;;;;;;;5075230;28;21104;-55
2021/08/04 05:41:58;;;;;;;4.57;4.17;;;;;;;;;;5076299;28;20450;-55
2021/08/04 05:44:25;;;;;;;7.63;4.90;;;;;;;;;;5075398;28;20501;-55
2021/08/04 05:46:52;;;;;;;4.73;4.33;;;;;;;;;;5075409;28;20479;-56
2021/08/04 05:49:20;;;;;;;6.63;4.60;;;;;;;;;;5075268;28;20868;-56
2021/08/04 05:51:51;;;;;;;6.97;4.40;;;;;;;;;;5075370;28;20803;-54
2021/08/04 05:54:18;;;;;;;5.20;4.00;;;;;;;;;;5075433;28;20420;-54
2021/08/04 05:56:45;;;;;;;4.80;4.40;;;;;;;;;;5075682;28;20448;-55
2021/08/04 05:59:12;;;;;;;4.67;4.17;;;;;;;;;;5075096;28;20470;-54
2021/08/04 06:01:40;;;;;;;6.70;4.47;;;;;;;;;;5074840;28;20455;-54
2021/08/04 06:04:07;;;;;;;4.93;4.30;;;;;;;;;;5074829;28;20451;-55
2021/08/04 06:06:34;;;;;;;4.20;3.80;;;;;;;;;;5074495;28;20459;-54
2021/08/04 06:09:03;;;;;;;4.53;3.70;;;;;;;;;;5074944;28;20451;-54
2021/08/04 06:11:30;;;;;;;3.57;3.30;;;;;;;;;;5075028;28;20472;-55
2021/08/04 06:13:57;;;;;;;6.77;4.17;;;;;;;;;;5074850;28;20500;-54
2021/08/04 06:16:24;;;;;;;4.30;4.00;;;;;;;;;;5074998;28;20443;-55
2021/08/04 06:18:52;;;;;;;6.13;4.00;;;;;;;;;;5074622;28;20463;-54
2021/08/04 06:21:19;;;;;;;6.10;3.87;;;;;;;;;;5074676;28;20497;-54
2021/08/04 06:23:48;;;;;;;5.53;4.67;;;;;;;;;;5075160;28;20458;-55
2021/08/04 06:26:16;;;;;;;4.27;3.80;;;;;;;;;;5074606;28;20966;-54
2021/08/04 06:28:44;;;;;;;4.00;3.60;;;;;;;;;;5074419;28;20905;-53
2021/08/04 06:31:11;;;;;;;5.73;3.90;;;;;;;;;;5073646;28;20501;-54
2021/08/04 06:33:39;;;;;;;4.93;3.43;;;;;;;;;;5074718;28;20443;-57
2021/08/04 06:36:06;;;;;;;4.50;3.43;;;;;;;;;;5074624;28;20507;-54
2021/08/04 06:38:33;;;;;;;4.27;3.57;;;;;;;;;;5074131;28;20963;-55
2021/08/04 06:41:00;;;;;;;3.60;3.30;;;;;;;;;;5074725;28;20474;-55
2021/08/04 06:43:29;;;;;;;3.43;3.13;;;;;;;;;;5074109;28;20997;-55
2021/08/04 06:45:57;;;;;;;3.40;3.10;;;;;;;;;;5074427;28;20455;-55
2021/08/04 06:48:24;;;;;;;4.53;3.90;;;;;;;;;;5074478;28;20998;-55
2021/08/04 06:50:51;;;;;;;4.50;3.47;;;;;;;;;;5074249;28;20814;-53
2021/08/04 06:53:18;;;;;;;3.43;3.00;;;;;;;;;;5073951;28;20440;-55
2021/08/04 06:55:46;;;;;;;3.33;3.03;;;;;;;;;;5073932;28;20443;-55
2021/08/04 06:58:13;;;;;;;3.43;3.13;;;;;;;;;;5073708;28;20467;-55
2021/08/04 07:00:41;;;;;;;4.10;3.17;;;;;;;;;;5073797;28;20451;-54
2021/08/04 07:03:09;;;;;;;3.77;3.47;;;;;;;;;;5073796;28;20500;-55
2021/08/04 07:05:36;;;;;;;6.40;3.57;;;;;;;;;;5073918;28;21000;-55
2021/08/04 07:08:03;;;;;;;5.63;3.47;;;;;;;;;;5073630;28;20487;-55
2021/08/04 07:10:31;;;;;;;4.20;2.97;;;;;;;;;;5073633;28;20509;-55
2021/08/04 07:12:58;;;;;;;5.10;3.63;;;;;;;;;;5074008;28;20448;-55
2021/08/04 07:15:25;;;;;;;3.80;3.40;;;;;;;;;;5073479;28;20458;-55
2021/08/04 07:17:54;;;;;;;3.90;3.50;;;;;;;;;;5073398;28;20583;-55
2021/08/04 07:20:23;;;;;;;3.77;3.47;;;;;;;;;;5073965;28;20856;-55
2021/08/04 07:22:51;;;;;;;4.40;3.13;;;;;;;;;;5074487;28;20441;-55
2021/08/04 07:25:18;;;;;;;4.77;3.43;;;;;;;;;;5073356;28;20482;-55
2021/08/04 07:27:45;;;;;;;4.70;4.00;;;;;;;;;;5073633;28;20482;-56
2021/08/04 07:30:14;;;;;;;4.53;3.60;;;;;;;;;;5074701;28;20455;-55
2021/08/04 07:32:41;;;;;;;4.80;3.37;;;;;;;;;;5074288;28;20509;-55
2021/08/04 07:35:10;;;;;;;4.20;3.80;;;;;;;;;;5074896;28;20907;-55
2021/08/04 07:37:38;;;;;;;4.30;3.17;;;;;;;;;;5073876;28;20471;-56
2021/08/04 07:40:07;;;;;;;3.83;3.53;;;;;;;;;;5074271;28;21012;-55
2021/08/04 07:42:34;;;;;;;4.90;3.40;;;;;;;;;;5073167;28;20553;-55
2021/08/04 07:45:02;;;;;;;6.37;3.53;;;;;;;;;;5074296;28;20508;-55
2021/08/04 07:47:29;;;;;;;4.07;3.67;;;;;;;;;;5073772;28;20479;-56
2021/08/04 07:49:56;;;;;;;3.93;3.30;;;;;;;;;;5074508;28;20456;-54
2021/08/04 07:52:25;;;;;;;5.60;3.07;;;;;;;;;;5073963;28;20456;-54
2021/08/04 07:54:52;;;;;;;7.73;3.47;;;;;;;;;;5073422;28;20868;-54
2021/08/04 07:57:19;;;;;;;3.67;2.73;;;;;;;;;;5073190;28;20937;-55
2021/08/04 07:59:47;;;;;;;3.10;2.80;;;;;;;;;;5072939;28;20444;-55
2021/08/04 08:02:14;;;;;;;3.80;2.90;;;;;;;;;;5073280;28;20447;-55
2021/08/04 08:04:41;;;;;;;2.83;2.43;;;;;;;;;;5072745;28;21003;-55
2021/08/04 08:07:08;;;;;;;3.67;3.00;;;;;;;;;;5072653;28;20459;-55
2021/08/04 08:09:37;;;;;;;4.20;3.20;;;;;;;;;;5073228;28;20459;-55
2021/08/04 08:12:05;;;;;;;4.57;3.27;;;;;;;;;;5074193;28;20443;-55
2021/08/04 08:14:32;;;;;;;4.50;3.50;;;;;;;;;;5073047;28;20454;-56
2021/08/04 08:17:00;;;;;;;3.87;3.57;;;;;;;;;;5073138;28;20539;-55
2021/08/04 08:19:27;;;;;;;3.53;3.00;;;;;;;;;;5072990;28;21058;-55
2021/08/04 08:21:54;;;;;;;3.90;3.50;;;;;;;;;;5073534;28;20518;-55
2021/08/04 08:24:22;;;;;;;6.97;3.40;;;;;;;;;;5072916;28;20443;-55
2021/08/04 08:26:50;;;;;;;3.60;2.80;;;;;;;;;;5073892;28;20449;-55
2021/08/04 08:29:18;;;;;;;4.97;4.57;;;;;;;;;;5072775;28;20530;-55
2021/08/04 08:31:45;;;;;;;6.80;4.63;;;;;;;;;;5072692;28;20493;-55
2021/08/04 08:34:12;;;;;;;5.63;4.93;;;;;;;;;;5072660;28;20455;-55
2021/08/04 08:36:40;;;;;;;7.53;5.03;;;;;;;;;;5072730;28;20445;-55
2021/08/04 08:39:08;;;;;;;5.43;4.70;;;;;;;;;;5072506;28;20517;-55
2021/08/04 08:41:36;;;;;;;5.97;4.73;;;;;;;;;;5072129;28;20446;-57
2021/08/04 08:44:06;;;;;;;4.90;4.40;;;;;;;;;;5072024;28;20863;-57
2021/08/04 08:46:34;;;;;;;5.10;4.53;;;;;;;;;;5072520;28;20433;-55
2021/08/04 08:49:03;;;;;;;7.03;4.80;;;;;;;;;;5072142;28;20483;-55
2021/08/04 08:51:30;;;;;;;8.13;5.10;;;;;;;;;;5072549;28;20454;-55
2021/08/04 08:53:58;;;;;;;6.73;4.27;;;;;;;;;;5074380;28;20445;-55
2021/08/04 08:56:25;;;;;;;4.47;3.60;;;;;;;;;;5076465;28;20442;-55
2021/08/04 08:58:53;;;;;;;5.53;4.07;;;;;;;;;;5075840;28;20981;-55
2021/08/04 09:01:31;;;;;;;5.93;4.50;;;;;;;;;;5077001;28;20454;-57
2021/08/04 09:03:59;;;;;;;5.03;4.30;;;;;;;;;;5076085;28;20480;-56
2021/08/04 09:06:40;;;;;;;4.60;4.20;;;;;;;;;;5076266;28;20889;-55
2021/08/04 09:09:13;;;;;;;4.50;3.90;;;;;;;;;;5075680;28;20483;-56
2021/08/04 09:11:41;;;;;;;4.00;3.70;;;;;;;;;;5076178;28;20485;-56
2021/08/04 09:14:08;;;;;;;4.47;4.07;;;;;;;;;;5075748;28;20441;-56
2021/08/04 09:16:39;;;;;;;4.77;4.30;;;;;;;;;;5075952;28;20453;-54
2021/08/04 09:19:06;;;;;;;4.37;3.97;;;;;;;;;;5097204;22;20464;31
2021/08/04 09:21:33;;;;;;;5.20;3.93;;;;;;;;;;5014957;28;20456;-54
2021/08/04 09:24:00;;;;;;;4.43;4.03;;;;;;;;;;5015838;28;20507;-56
2021/08/04 09:26:28;;;;;;;7.33;4.60;;;;;;;;;;5015075;28;20443;-56
2021/08/04 09:28:56;;;;;;;4.37;3.97;;;;;;;;;;5015559;28;20492;-56
2021/08/04 09:31:36;;;;;;;5.80;3.87;;;;;;;;;;5015769;28;20475;-56
2021/08/04 09:34:05;;;;;;;5.10;3.50;;;;;;;;;;5015514;28;20491;-55
2021/08/04 09:36:32;;;;;;;5.23;4.30;;;;;;;;;;5015454;28;20500;-56
2021/08/04 09:39:03;;;;;;;5.30;4.80;;;;;;;;;;5015754;28;20508;-55
2021/08/04 09:41:31;;;;;;;4.37;4.03;;;;;;;;;;5015385;28;20944;-56
2021/08/04 09:44:05;;;;;;;5.73;4.37;;;;;;;;;;5015888;28;20445;-55
2021/08/04 09:46:32;;;;;;;6.73;4.50;;;;;;;;;;5015668;28;20480;-55
2021/08/04 09:49:11;;;;;;;4.07;3.73;;;;;;;;;;5015227;28;20531;-55
2021/08/04 09:51:39;;;;;;;4.80;4.10;;;;;;;;;;5015360;28;20854;-56
2021/08/04 09:54:10;;;;;;;4.43;3.63;;;;;;;;;;5015438;28;20454;-56
2021/08/04 09:56:48;;;;;;;5.67;4.47;;;;;;;;;;5015628;28;20448;-56
2021/08/04 09:59:16;;;;;;;5.90;4.13;;;;;;;;;;5015837;28;20426;-58
2021/08/04 10:01:44;;;;;;;4.73;4.33;;;;;;;;;;5015540;28;20449;-57
2021/08/04 10:04:13;;;;;;;5.37;4.17;;;;;;;;;;5015380;28;20457;-57
2021/08/04 10:06:41;;;;;;;5.77;5.20;;;;;;;;;;5015243;28;20456;-57
2021/08/04 10:09:10;;;;;;;4.83;4.40;;;;;;;;;;5014857;28;20489;-56
2021/08/04 10:11:40;;;;;;;5.20;4.70;;;;;;;;;;5014904;28;20484;-57
2021/08/04 10:14:07;;;;;;;5.17;4.67;;;;;;;;;;5014592;28;20968;-56
2021/08/04 10:16:36;;;;;;;5.23;4.73;;;;;;;;;;5014837;28;20448;-55
2021/08/04 10:19:05;;;;;;;5.57;4.40;;;;;;;;;;5014718;28;20445;-56
2021/08/04 10:21:35;;;;;;;5.37;4.87;;;;;;;;;;5014815;28;20491;-55
2021/08/04 10:24:02;;;;;;;4.27;3.90;;;;;;;;;;5014946;28;20442;-58
2021/08/04 10:26:30;;;;;;;5.80;5.23;;;;;;;;;;5014736;28;20521;-56
2021/08/04 10:28:58;;;;;;;5.63;5.10;;;;;;;;;;5014681;28;20477;-56
2021/08/04 10:31:26;;;;;;;5.60;5.10;;;;;;;;;;5014823;28;20477;-55
2021/08/04 10:33:54;;;;;;;5.57;5.03;;;;;;;;;;5014615;28;20505;-57
2021/08/04 10:36:22;;;;;;;5.67;5.17;;;;;;;;;;5014715;28;20460;-55
2021/08/04 10:38:54;;;;;;;5.40;4.90;;;;;;;;;;5014080;28;20939;-54
2021/08/04 10:41:22;;;;;;;5.07;4.50;;;;;;;;;;5014360;28;20472;-56
2021/08/04 10:43:51;;;;;;;6.40;4.60;;;;;;;;;;5014139;28;20456;-55
2021/08/04 10:46:37;;;;;;;5.67;5.10;;;;;;;;;;5013978;28;21008;-57
2021/08/04 10:49:28;;;;;;;5.93;5.37;;;;;;;;;;5013637;28;20479;-58
2021/08/04 10:52:19;;;;;;;5.93;4.60;;;;;;;;;;4994442;28;20510;-59
2021/08/04 10:55:05;;;;;;;5.10;4.63;;;;;;;;;;5014776;28;20430;-58
2021/08/04 10:57:36;;;;;;;5.03;4.50;;;;;;;;;;5014899;28;20448;-58
2021/08/04 11:00:22;;;;;;;4.30;3.60;;;;;;;;;;5014828;28;20516;-58
2021/08/04 11:02:49;;;;;;;4.00;3.60;;;;;;;;;;5014952;28;20519;-58
2021/08/04 11:05:16;;;;;;;4.00;3.60;;;;;;;;;;5014105;28;20862;-60
2021/08/04 11:08:02;;;;;;;4.63;3.57;;;;;;;;;;5014386;28;20503;-60
2021/08/04 11:10:38;;;;;;;3.97;3.57;;;;;;;;;;5014428;28;20982;-56
2021/08/04 11:13:06;;;;;;;5.20;4.17;;;;;;;;;;5015108;28;20523;-58
2021/08/04 11:15:34;;;;;;;7.33;4.77;;;;;;;;;;5014334;28;20453;-56
2021/08/04 11:18:07;;;;;;;4.33;3.90;;;;;;;;;;5014576;28;20451;-58
2021/08/04 11:20:35;;;;;;;4.30;3.77;;;;;;;;;;5014476;28;20531;-58
2021/08/04 11:23:05;;;;;;;3.43;3.13;;;;;;;;;;5014064;28;20570;-57
2021/08/04 11:25:35;;;;;;;3.37;3.07;;;;;;;;;;5013825;28;20498;-56
2021/08/04 11:28:05;;;;;;;3.17;2.80;;;;;;;;;;5013871;28;20853;-55
2021/08/04 11:30:35;;;;;;;2.80;2.60;;;;;;;;;;5013764;28;20574;-57
2021/08/04 11:33:17;;;;;;;6.50;3.23;;;;;;;;;;5013616;28;20457;-56
2021/08/04 11:35:44;;;;;;;3.93;3.40;;;;;;;;;;5013081;28;20443;-56
2021/08/04 11:38:12;;;;;;;10.53;4.00;;;;;;;;;;5013717;28;20498;-56
2021/08/04 11:40:39;;;;;;;4.70;3.50;;;;;;;;;;5013317;28;20458;-56
2021/08/04 11:43:06;;;;;;;3.63;3.23;;;;;;;;;;5013020;28;20508;-55
2021/08/04 11:45:35;;;;;;;5.30;3.33;;;;;;;;;;5013474;28;20444;-55
2021/08/04 11:48:02;;;;;;;4.67;3.30;;;;;;;;;;5013551;28;20439;-55
2021/08/04 11:50:29;;;;;;;3.70;3.40;;;;;;;;;;5013209;28;20492;-56
2021/08/04 11:52:56;;;;;;;5.87;4.53;;;;;;;;;;5013384;28;20498;-55
2021/08/04 11:55:24;;;;;;;3.60;3.30;;;;;;;;;;5013389;28;20450;-56
2021/08/04 11:57:58;;;;;;;5.27;4.87;;;;;;;;;;5013109;28;20517;-56
2021/08/04 12:00:28;;;;;;;4.57;4.20;;;;;;;;;;5013394;28;20462;-54
2021/08/04 12:02:57;;;;;;;6.00;5.50;;;;;;;;;;5013443;28;20462;-54
2021/08/04 12:05:24;;;;;;;6.93;5.27;;;;;;;;;;5013497;28;20453;-56
2021/08/04 12:07:51;;;;;;;5.00;4.60;;;;;;;;;;5012879;28;20450;-56
2021/08/04 12:10:20;;;;;;;6.07;4.10;;;;;;;;;;5013142;28;21004;-57
2021/08/04 12:12:48;;;;;;;4.27;3.73;;;;;;;;;;5013471;28;20827;-56
2021/08/04 12:15:17;;;;;;;4.90;4.20;;;;;;;;;;5013198;28;20602;-56
2021/08/04 12:17:44;;;;;;;4.93;4.53;;;;;;;;;;5013188;28;20445;-57
2021/08/04 12:20:18;;;;;;;4.43;4.00;;;;;;;;;;5012857;28;20489;-56
2021/08/04 12:22:47;;;;;;;5.10;4.60;;;;;;;;;;5013666;28;20438;-55
2021/08/04 12:25:16;;;;;;;6.23;4.50;;;;;;;;;;5013007;28;20867;-56
2021/08/04 12:27:45;;;;;;;4.63;4.17;;;;;;;;;;5012859;28;20490;-57
2021/08/04 12:30:20;;;;;;;5.90;4.40;;;;;;;;;;5016585;28;20918;-56
2021/08/04 12:32:56;;;;;;;5.30;4.80;;;;;;;;;;5016813;28;20575;-55
2021/08/04 12:35:26;;;;;;;5.83;4.30;;;;;;;;;;5016951;28;20449;-57
2021/08/04 12:37:54;;;;;;;4.97;4.00;;;;;;;;;;5016578;28;20459;-57
2021/08/04 12:40:22;;;;;;;4.30;3.90;;;;;;;;;;5016596;28;20551;-57
2021/08/04 12:42:49;;;;;;;6.50;3.53;;;;;;;;;;5016716;28;20444;-57
2021/08/04 12:45:25;;;;;;;3.37;3.07;;;;;;;;;;5016739;28;20448;-56
2021/08/04 12:47:54;;;;;;;4.43;4.03;;;;;;;;;;5016522;28;20988;-56
2021/08/04 12:50:22;;;;;;;5.87;4.27;;;;;;;;;;5016063;28;20566;-55
2021/08/04 12:52:50;;;;;;;5.30;4.03;;;;;;;;;;5016369;28;20451;-56
2021/08/04 12:55:18;;;;;;;4.40;2.93;;;;;;;;;;5016458;28;20444;-56
2021/08/04 12:57:45;;;;;;;3.80;3.40;;;;;;;;;;5016281;28;20505;-56
2021/08/04 13:00:27;;;;;;;4.07;3.40;;;;;;;;;;5016256;28;20509;-56
2021/08/04 13:02:54;;;;;;;3.33;3.03;;;;;;;;;;5016021;28;20491;-54
2021/08/04 13:05:21;;;;;;;5.47;4.27;;;;;;;;;;5016147;28;20445;-56
2021/08/04 13:07:48;;;;;;;3.93;3.53;;;;;;;;;;5016308;28;20451;-56
2021/08/04 13:10:34;;;;;;;4.87;3.77;;;;;;;;;;5015782;28;20995;-56
2021/08/04 13:13:02;;;;;;;4.60;3.73;;;;;;;;;;5016416;28;20847;-55
2021/08/04 13:15:41;;;;;;;4.50;3.73;;;;;;;;;;5015931;28;20449;-57
2021/08/04 13:18:09;;;;;;;4.70;3.80;;;;;;;;;;5016143;28;20433;-56
2021/08/04 13:20:38;;;;;;;4.10;3.70;;;;;;;;;;5015115;28;20528;-55
2021/08/04 13:23:06;;;;;;;3.63;3.43;;;;;;;;;;5015942;28;20475;-56
2021/08/04 13:25:36;;;;;;;6.27;3.80;;;;;;;;;;5015709;28;20480;-56
2021/08/04 13:28:04;;;;;;;4.93;3.40;;;;;;;;;;5015685;28;20451;-56
2021/08/04 13:30:33;;;;;;;3.97;3.30;;;;;;;;;;5015827;28;20486;-56
2021/08/04 13:33:04;;;;;;;3.50;3.20;;;;;;;;;;5015822;28;20450;-56
2021/08/04 13:35:31;;;;;;;3.70;3.40;;;;;;;;;;5015932;28;20873;-56
2021/08/04 13:37:59;;;;;;;3.50;3.20;;;;;;;;;;5015754;28;20442;-57
2021/08/04 13:40:26;;;;;;;10.63;9.63;;;;;;;;;;5014759;28;20964;-56
2021/08/04 13:42:55;;;;;;;5.73;4.23;;;;;;;;;;5015552;28;20452;-56
2021/08/04 13:45:23;;;;;;;8.97;3.20;;;;;;;;;;5015407;28;20514;-56
2021/08/04 13:47:53;;;;;;;5.17;4.67;;;;;;;;;;5015317;28;20803;-56
2021/08/04 13:50:21;;;;;;;3.73;3.00;;;;;;;;;;5015126;28;21060;-56
2021/08/04 13:52:49;;;;;;;4.20;3.77;;;;;;;;;;5015519;28;20476;-57
2021/08/04 13:55:17;;;;;;;4.80;3.10;;;;;;;;;;5015299;28;20453;-55
2021/08/04 13:57:45;;;;;;;3.50;3.20;;;;;;;;;;5015835;28;20510;-56
2021/08/04 14:00:15;;;;;;;5.23;3.13;;;;;;;;;;5015327;28;20469;-57
2021/08/04 14:02:43;;;;;;;5.80;3.17;;;;;;;;;;5015235;28;20505;-56
2021/08/04 14:05:11;;;;;;;4.30;3.67;;;;;;;;;;5015200;28;20506;-56
2021/08/04 14:07:38;;;;;;;3.73;3.43;;;;;;;;;;5015075;28;20448;-56
2021/08/04 14:10:06;;;;;;;3.33;3.03;;;;;;;;;;5014749;28;20530;-56
2021/08/04 14:12:33;;;;;;;4.87;4.47;;;;;;;;;;5014896;28;20948;-56
2021/08/04 14:15:00;;;;;;;5.00;3.97;;;;;;;;;;5015681;28;20516;-56
2021/08/04 14:17:29;;;;;;;3.50;3.20;;;;;;;;;;5014966;28;20447;-55
2021/08/04 14:19:56;;;;;;;4.00;3.70;;;;;;;;;;5014439;28;20569;-56
2021/08/04 14:22:23;;;;;;;6.50;3.60;;;;;;;;;;5015070;28;20500;-56
2021/08/04 14:24:51;;;;;;;5.50;4.80;;;;;;;;;;5014955;28;20500;-55
2021/08/04 14:27:19;;;;;;;4.90;4.33;;;;;;;;;;5014722;28;20454;-56
2021/08/04 14:29:46;;;;;;;6.60;3.73;;;;;;;;;;5014610;28;20490;-56
2021/08/04 14:32:14;;;;;;;3.93;3.00;;;;;;;;;;5014588;28;20527;-57
2021/08/04 14:34:42;;;;;;;3.90;3.60;;;;;;;;;;5014387;28;20451;-56
2021/08/04 14:37:11;;;;;;;5.30;3.40;;;;;;;;;;5014383;28;20866;-55
2021/08/04 14:39:38;;;;;;;3.93;3.27;;;;;;;;;;5014784;28;20498;-55
2021/08/04 14:42:06;;;;;;;4.20;3.10;;;;;;;;;;5014398;28;20504;-55
2021/08/04 14:44:33;;;;;;;4.00;3.33;;;;;;;;;;5014918;28;20515;-55
2021/08/04 14:47:01;;;;;;;4.13;3.60;;;;;;;;;;5014422;28;20588;-56
2021/08/04 14:49:28;;;;;;;3.27;3.00;;;;;;;;;;5014007;28;20893;-57
2021/08/04 14:51:57;;;;;;;5.57;3.27;;;;;;;;;;5013221;28;20460;-57
2021/08/04 14:54:25;;;;;;;3.37;3.03;;;;;;;;;;5014512;28;20453;-56